UA775 KCLT-KMCO
Flight info
| Callsign | UA775 |
|---|---|
| Flight time | N/A |
| Altitude | 34000 |
| Route | ICONS5 NOOKS WURFL Q83 ROYCO Q85 LPERD SNFLD3 |
| Aircraft | B738/M-SDE2E3FGHIRWXY/LB1 |
Departure
| Time | 2026-05-06 00:30 |
|---|---|
| Airport | Charlotte Douglas International Airport (KCLT) |
Arrival
| Time | N/A |
|---|---|
| Airport | Orlando International Airport (KMCO) |
| Time | Latitude | Longitude | Altitude | Speed | Heading |
|---|---|---|---|---|---|
| 2026-05-06 00:24 | 35.22226 | -80.93730 | 730 ft | 0 kts | 0° |
| 2026-05-06 00:25 | 35.22233 | -80.93730 | 730 ft | 2 kts | 0° |
| 2026-05-06 00:25 | 35.22261 | -80.93732 | 730 ft | 6 kts | 356° |
| 2026-05-06 00:25 | 35.22306 | -80.93737 | 730 ft | 7 kts | 353° |
| 2026-05-06 00:26 | 35.22315 | -80.93738 | 730 ft | 0 kts | 354° |
| 2026-05-06 00:27 | 35.22333 | -80.93740 | 731 ft | 5 kts | 355° |
| 2026-05-06 00:27 | 35.22377 | -80.93741 | 731 ft | 6 kts | 5° |
| 2026-05-06 00:28 | 35.22396 | -80.93724 | 731 ft | 2 kts | 59° |
| 2026-05-06 00:28 | 35.22403 | -80.93689 | 731 ft | 6 kts | 84° |
| 2026-05-06 00:28 | 35.22399 | -80.93627 | 731 ft | 7 kts | 113° |
| 2026-05-06 00:28 | 35.22362 | -80.93605 | 731 ft | 6 kts | 174° |
| 2026-05-06 00:29 | 35.22104 | -80.93583 | 731 ft | 74 kts | 176° |
| 2026-05-06 00:29 | 35.21351 | -80.93518 | 722 ft | 137 kts | 176° |
| 2026-05-06 00:29 | 35.20232 | -80.93392 | 773 ft | 181 kts | 173° |
| 2026-05-06 00:29 | 35.18928 | -80.93197 | 1044 ft | 205 kts | 174° |
| 2026-05-06 00:30 | 35.17408 | -80.93003 | 1023 ft | 239 kts | 175° |
| 2026-05-06 00:30 | 35.16399 | -80.92881 | 1287 ft | 245 kts | 176° |
| 2026-05-06 00:30 | 35.14787 | -80.92697 | 2369 ft | 211 kts | 175° |
| 2026-05-06 00:30 | 35.13376 | -80.92494 | 3026 ft | 199 kts | 175° |
| 2026-05-06 00:31 | 35.12013 | -80.92281 | 3312 ft | 198 kts | 175° |
| 2026-05-06 00:31 | 35.10610 | -80.92050 | 3459 ft | 204 kts | 174° |
| 2026-05-06 00:31 | 35.09189 | -80.91824 | 3775 ft | 200 kts | 175° |
| 2026-05-06 00:31 | 35.07873 | -80.91607 | 4432 ft | 181 kts | 175° |
| 2026-05-06 00:32 | 35.06658 | -80.91393 | 4900 ft | 175 kts | 175° |
| 2026-05-06 00:32 | 35.05518 | -80.91181 | 5519 ft | 157 kts | 175° |
| 2026-05-06 00:32 | 35.04464 | -80.90972 | 5810 ft | 161 kts | 175° |
| 2026-05-06 00:32 | 35.03300 | -80.90748 | 5774 ft | 174 kts | 175° |
| 2026-05-06 00:33 | 35.02038 | -80.90510 | 6110 ft | 187 kts | 175° |
| 2026-05-06 00:33 | 35.00722 | -80.90264 | 6726 ft | 194 kts | 175° |
| 2026-05-06 00:33 | 34.99367 | -80.89998 | 7356 ft | 200 kts | 175° |
| 2026-05-06 00:33 | 34.97980 | -80.89706 | 7976 ft | 201 kts | 175° |